createdAt,value
2022-12-28T00:00:43.120Z,85.80
2022-12-28T00:05:46.327Z,86.39
2022-12-28T00:11:07.751Z,86.93
2022-12-28T00:16:24.511Z,87.05
2022-12-28T00:21:28.310Z,87.68
2022-12-28T00:26:34.135Z,87.82
2022-12-28T00:31:37.239Z,88.64
2022-12-28T00:37:10.260Z,88.66
2022-12-28T00:42:03.264Z,89.32
2022-12-28T00:47:06.664Z,89.80
2022-12-28T00:52:09.757Z,90.11
2022-12-28T00:57:12.700Z,90.06
2022-12-28T01:02:15.633Z,90.79
2022-12-28T01:07:18.827Z,90.60
2022-12-28T01:12:21.879Z,91.06
2022-12-28T01:17:24.911Z,91.49
2022-12-28T01:22:28.248Z,91.91
2022-12-28T01:27:31.099Z,92.14
2022-12-28T01:32:34.024Z,92.60
2022-12-28T01:37:36.950Z,92.79
2022-12-28T01:42:40.283Z,93.21
2022-12-28T01:47:43.638Z,93.79
2022-12-28T01:52:59.805Z,93.98
2022-12-28T01:58:11.929Z,94.62
2022-12-28T02:03:21.691Z,95.81
2022-12-28T02:08:41.523Z,97.30
2022-12-28T02:13:47.840Z,96.73
2022-12-28T02:18:51.937Z,96.56
2022-12-28T02:24:31.816Z,95.42
2022-12-28T02:30:07.508Z,95.23
2022-12-28T02:35:46.029Z,94.11
2022-12-28T02:40:59.967Z,92.64
2022-12-28T02:46:30.973Z,92.92
2022-12-28T02:52:02.091Z,91.69
2022-12-28T02:58:09.376Z,92.49
2022-12-28T03:03:34.047Z,92.70
2022-12-28T03:09:13.112Z,91.91
2022-12-28T03:14:29.008Z,91.15
2022-12-28T03:20:00.366Z,90.23
2022-12-28T03:25:32.327Z,89.34
2022-12-28T03:31:00.170Z,89.11
2022-12-28T03:36:35.206Z,89.98
2022-12-28T03:42:40.460Z,90.37
2022-12-28T03:47:48.151Z,90.96
2022-12-28T03:52:52.670Z,91.09
2022-12-28T03:57:56.992Z,91.65
2022-12-28T04:02:59.818Z,91.73
2022-12-28T04:08:02.796Z,92.53
2022-12-28T04:13:05.706Z,93.13
2022-12-28T04:18:08.727Z,93.59
2022-12-28T04:23:11.558Z,94.06
2022-12-28T04:28:14.525Z,94.12
2022-12-28T04:33:17.727Z,94.76
2022-12-28T04:38:21.749Z,95.28
2022-12-28T04:43:24.919Z,95.70
2022-12-28T04:48:28.657Z,95.80
2022-12-28T04:53:35.870Z,96.24
2022-12-28T04:58:39.146Z,96.40
2022-12-28T05:03:48.166Z,96.61
2022-12-28T05:08:57.597Z,96.88
2022-12-28T05:14:00.397Z,96.96
2022-12-28T05:19:03.759Z,97.57
2022-12-28T05:24:07.355Z,97.58
2022-12-28T05:29:10.195Z,97.74
2022-12-28T05:34:13.019Z,98.18
2022-12-28T05:39:16.607Z,98.52
2022-12-28T05:44:19.505Z,98.75
2022-12-28T05:49:22.569Z,98.82
2022-12-28T05:54:25.449Z,98.89
2022-12-28T05:59:28.349Z,99.28
2022-12-28T06:04:31.635Z,99.39
2022-12-28T06:09:34.932Z,99.30
2022-12-28T06:14:37.889Z,99.90
2022-12-28T06:19:40.858Z,99.97
2022-12-28T06:24:43.747Z,100.00
2022-12-28T06:29:46.687Z,100.00
2022-12-28T06:34:49.601Z,100.00
2022-12-28T06:39:52.514Z,100.00
2022-12-28T06:44:55.689Z,100.00
2022-12-28T06:49:58.612Z,100.00
2022-12-28T06:55:02.276Z,100.00
2022-12-28T07:00:07.181Z,100.00
2022-12-28T07:05:10.183Z,100.00
2022-12-28T07:10:14.399Z,100.00
2022-12-28T07:15:17.493Z,100.00
2022-12-28T07:20:20.612Z,100.00
2022-12-28T07:25:23.446Z,100.00
2022-12-28T07:30:26.429Z,100.00
2022-12-28T07:35:29.485Z,100.00
2022-12-28T07:40:32.396Z,100.00
2022-12-28T07:45:35.304Z,100.00
2022-12-28T07:50:38.391Z,100.00
2022-12-28T07:55:42.716Z,100.00
2022-12-28T08:00:45.682Z,100.00
2022-12-28T08:05:48.773Z,100.00
2022-12-28T08:10:51.699Z,99.83
2022-12-28T08:15:55.597Z,97.75
2022-12-28T08:21:10.516Z,95.87
2022-12-28T08:26:21.297Z,94.06
2022-12-28T08:31:33.970Z,91.85
2022-12-28T08:36:37.199Z,89.68
2022-12-28T08:41:40.217Z,87.18
2022-12-28T08:46:43.331Z,85.18
2022-12-28T08:51:46.111Z,83.23
2022-12-28T08:56:50.261Z,81.46
2022-12-28T09:01:53.380Z,80.72
2022-12-28T09:06:56.439Z,80.63
2022-12-28T09:11:59.267Z,81.03
2022-12-28T09:17:02.449Z,81.78
2022-12-28T09:22:05.364Z,81.89
2022-12-28T09:27:08.211Z,82.19
2022-12-28T09:32:11.060Z,82.05
2022-12-28T09:37:14.111Z,81.34
2022-12-28T09:42:29.057Z,81.36
2022-12-28T09:47:46.460Z,82.06
2022-12-28T09:53:26.890Z,82.64
2022-12-28T09:58:33.447Z,83.36
2022-12-28T10:03:43.246Z,84.07
2022-12-28T10:08:49.731Z,84.71
2022-12-28T10:14:02.198Z,85.02
2022-12-28T10:19:07.172Z,85.38
2022-12-28T10:24:30.872Z,84.73
2022-12-28T10:29:34.705Z,84.93
2022-12-28T10:34:53.016Z,85.01
2022-12-28T10:40:42.585Z,84.44
2022-12-28T10:45:53.579Z,84.42
2022-12-28T10:51:01.557Z,84.15
2022-12-28T10:56:21.351Z,83.74
2022-12-28T11:01:27.676Z,83.59
2022-12-28T11:07:01.994Z,82.74
2022-12-28T11:12:26.663Z,82.97
2022-12-28T11:17:37.717Z,82.53
2022-12-28T11:22:40.751Z,81.98
2022-12-28T11:27:48.224Z,81.98
2022-12-28T11:32:58.807Z,80.73
2022-12-28T11:38:05.739Z,79.47
2022-12-28T11:43:28.597Z,78.09
2022-12-28T11:48:44.037Z,76.99
2022-12-28T11:53:46.846Z,76.44
2022-12-28T11:58:58.825Z,75.57
2022-12-28T12:04:01.957Z,75.01
2022-12-28T12:09:04.920Z,75.02
2022-12-28T12:14:08.918Z,74.23
2022-12-28T12:19:27.009Z,74.15
2022-12-28T12:24:42.931Z,72.55
2022-12-28T12:29:57.015Z,71.73
2022-12-28T12:35:05.998Z,71.63
2022-12-28T12:40:52.687Z,71.11
2022-12-28T12:46:30.841Z,71.15
2022-12-28T12:51:57.749Z,71.72
2022-12-28T12:57:24.402Z,72.26
2022-12-28T13:02:39.602Z,72.23
2022-12-28T13:07:42.476Z,72.16
2022-12-28T13:12:45.663Z,72.90
2022-12-28T13:18:44.025Z,72.05
2022-12-28T13:23:45.281Z,69.98
2022-12-28T13:29:10.553Z,67.86
2022-12-28T13:34:13.432Z,67.59
2022-12-28T13:39:19.067Z,67.11
2022-12-28T13:44:43.956Z,67.20
2022-12-28T13:50:08.882Z,67.34
2022-12-28T13:55:24.102Z,67.75
2022-12-28T14:00:30.041Z,68.38
2022-12-28T14:05:34.097Z,68.66
2022-12-28T14:10:37.513Z,68.67
2022-12-28T14:15:43.823Z,69.26
2022-12-28T14:20:55.242Z,69.71
2022-12-28T14:26:05.189Z,70.24
2022-12-28T14:31:13.378Z,71.22
2022-12-28T14:36:47.104Z,72.01
2022-12-28T14:41:50.316Z,72.70
2022-12-28T14:46:54.632Z,73.25
2022-12-28T14:52:17.796Z,74.13
2022-12-28T14:57:36.926Z,74.88
2022-12-28T15:02:43.096Z,75.39
2022-12-28T15:07:46.399Z,75.83
2022-12-28T15:12:49.378Z,76.11
2022-12-28T15:17:52.320Z,76.60
2022-12-28T15:22:55.497Z,77.21
2022-12-28T15:27:58.486Z,77.98
2022-12-28T15:33:01.281Z,78.63
2022-12-28T15:38:04.835Z,79.13
2022-12-28T15:43:07.781Z,79.70
2022-12-28T15:48:10.747Z,80.38
2022-12-28T15:53:13.715Z,80.53
2022-12-28T15:58:16.541Z,81.28
2022-12-28T16:03:19.331Z,81.70
2022-12-28T16:08:22.252Z,82.19
2022-12-28T16:13:25.455Z,82.66
2022-12-28T16:18:28.774Z,82.86
2022-12-28T16:23:38.981Z,83.39
2022-12-28T16:28:42.226Z,83.44
2022-12-28T16:33:45.139Z,84.02
2022-12-28T16:38:48.010Z,84.40
2022-12-28T16:43:52.441Z,84.32
2022-12-28T16:48:55.547Z,84.46
2022-12-28T16:53:58.748Z,84.94
2022-12-28T16:59:02.103Z,84.95
2022-12-28T17:04:05.725Z,85.07
2022-12-28T17:09:09.465Z,85.58
2022-12-28T17:14:12.975Z,85.94
2022-12-28T17:19:16.081Z,86.38
2022-12-28T17:24:19.067Z,86.84
2022-12-28T17:29:22.412Z,87.38
2022-12-28T17:34:25.752Z,87.68
2022-12-28T17:39:30.283Z,88.01
2022-12-28T17:44:36.108Z,88.34
2022-12-28T17:49:38.987Z,88.72
2022-12-28T17:54:41.986Z,89.53
2022-12-28T17:59:45.257Z,89.73
2022-12-28T18:04:48.311Z,90.49
2022-12-28T18:09:51.423Z,90.69
2022-12-28T18:14:54.365Z,90.87
2022-12-28T18:19:57.346Z,91.02
2022-12-28T18:25:00.139Z,91.61
2022-12-28T18:30:03.336Z,92.00
2022-12-28T18:35:07.205Z,92.23
2022-12-28T18:40:10.678Z,92.61
2022-12-28T18:45:13.690Z,93.09
2022-12-28T18:50:16.964Z,93.54
2022-12-28T18:55:21.328Z,94.07
2022-12-28T19:00:24.269Z,94.25
2022-12-28T19:05:27.706Z,95.14
2022-12-28T19:10:30.757Z,95.10
2022-12-28T19:15:33.917Z,95.64
2022-12-28T19:20:36.864Z,95.91
2022-12-28T19:25:39.829Z,95.98
2022-12-28T19:30:42.896Z,96.39
2022-12-28T19:35:45.789Z,96.26
2022-12-28T19:40:48.570Z,96.68
2022-12-28T19:45:51.381Z,97.18
2022-12-28T19:50:54.309Z,97.41
2022-12-28T19:56:13.338Z,97.36
2022-12-28T20:01:20.645Z,97.94
2022-12-28T20:06:29.721Z,98.04
2022-12-28T20:11:32.699Z,98.20
2022-12-28T20:16:36.370Z,98.64
2022-12-28T20:21:41.558Z,99.07
2022-12-28T20:26:44.637Z,99.27
2022-12-28T20:31:50.692Z,99.58
2022-12-28T20:36:53.860Z,99.59
2022-12-28T20:42:14.918Z,100.00
2022-12-28T20:47:18.198Z,100.00
2022-12-28T20:52:21.371Z,100.00
2022-12-28T20:57:24.229Z,100.00
2022-12-28T21:02:27.189Z,100.00
2022-12-28T21:07:32.217Z,100.00
2022-12-28T21:12:35.358Z,100.00
2022-12-28T21:17:39.031Z,100.00
2022-12-28T21:22:42.001Z,100.00
2022-12-28T21:27:44.765Z,100.00
2022-12-28T21:32:50.795Z,100.00
2022-12-28T21:37:53.903Z,100.00
2022-12-28T21:42:56.923Z,100.00
2022-12-28T21:48:00.040Z,100.00
2022-12-28T21:53:03.624Z,100.00
2022-12-28T21:58:07.397Z,100.00
2022-12-28T22:03:28.782Z,100.00
2022-12-28T22:08:51.006Z,100.00
2022-12-28T22:13:53.768Z,100.00
2022-12-28T22:19:04.421Z,100.00
2022-12-28T22:24:07.834Z,100.00
2022-12-28T22:29:10.924Z,100.00
2022-12-28T22:34:13.814Z,100.00
2022-12-28T22:39:16.855Z,100.00
2022-12-28T22:44:19.844Z,100.00
2022-12-28T22:49:22.941Z,100.00
2022-12-28T22:54:26.319Z,100.00
2022-12-28T22:59:29.373Z,100.00
2022-12-28T23:04:32.533Z,100.00
2022-12-28T23:09:35.541Z,100.00
2022-12-28T23:14:57.224Z,100.00
2022-12-28T23:20:18.628Z,100.00
2022-12-28T23:25:43.226Z,100.00
2022-12-28T23:30:49.264Z,100.00
2022-12-28T23:35:52.284Z,100.00
2022-12-28T23:41:15.191Z,100.00
2022-12-28T23:46:18.060Z,100.00
2022-12-28T23:51:21.115Z,100.00
2022-12-28T23:56:25.062Z,100.00
